Terminal Aerodrome Forecast
Issued by NWS Blacksburg, VA

Home | Current Version | Previous Version | Text Only | Print | Product List | Glossary On
Versions: 1 2 3 4 5 6 7 8 9 10 11 12 13 14 15 16 17 18 19 20 21 22 23 24 25 26 27 28 29 30 31 32
000
FTUS41 KRNK 240520
TAFROA
TAF
KROA 240520Z 2406/2506 17005KT 4SM -DZ BR OVC005 WS014/20040KT
     FM240800 16007KT 6SM BR SCT005 OVC018
     FM241500 20011G20KT P6SM BKN025
     FM241800 21011G26KT P6SM SCT035
     FM250100 23005KT P6SM BKN035=

USA.gov is the U.S. government's official web portal to all federal, state and local government web resources and services.